Time;durP1;ratioP1;P1;durP2;ratioP2;P2;SDS_P1;SDS_P2;PMS_P1;PMS_P2;Temp;Humidity;BMP_temperature;BMP_pressure;BME280_temperature;BME280_humidity;BME280_pressure;Samples;Min_cycle;Max_cycle;Signal;HPM_P1;HPM_P2
2022/05/03 00:00:22;;;;;;;6.72;4.90;;;6.60;99.90;;;;;;5037412;28;20052;-54
2022/05/03 00:03:08;;;;;;;7.75;5.55;;;6.60;99.90;;;;;;5039751;28;20064;-56
2022/05/03 00:05:50;;;;;;;8.63;5.30;;;6.60;99.90;;;;;;5022460;28;20044;-52
2022/05/03 00:08:27;;;;;;;8.68;7.00;;;6.50;99.90;;;;;;5023982;28;20049;-53
2022/05/03 00:11:06;;;;;;;7.22;5.43;;;6.50;99.90;;;;;;5037652;28;20533;-54
2022/05/03 00:14:03;;;;;;;10.65;5.68;;;6.30;99.90;;;;;;5042311;28;20105;-55
2022/05/03 00:16:32;;;;;;;8.13;5.72;;;6.30;99.90;;;;;;5021029;28;20090;-47
2022/05/03 00:19:00;;;;;;;6.93;6.15;;;6.20;99.90;;;;;;5038450;28;20810;-54
2022/05/03 00:21:27;;;;;;;8.25;6.55;;;6.20;99.90;;;;;;5039552;28;20069;-54
2022/05/03 00:23:54;;;;;;;9.32;6.60;;;6.20;99.90;;;;;;5006168;28;20136;-55
2022/05/03 00:26:20;;;;;;;11.25;7.65;;;6.10;99.90;;;;;;5036333;28;20057;-53
2022/05/03 00:28:47;;;;;;;9.30;7.30;;;6.00;99.90;;;;;;5033163;28;20044;-49
2022/05/03 00:31:15;;;;;;;9.55;6.97;;;6.00;99.90;;;;;;5040390;28;20072;-48
2022/05/03 00:33:42;;;;;;;8.07;6.78;;;6.00;99.90;;;;;;5031209;28;20049;-50
2022/05/03 00:36:08;;;;;;;10.95;7.72;;;6.00;99.90;;;;;;5039999;28;20052;-50
2022/05/03 00:38:34;;;;;;;10.15;7.75;;;6.00;99.90;;;;;;5043054;28;20052;-55
2022/05/03 00:41:04;;;;;;;9.35;7.55;;;6.00;99.90;;;;;;5043726;28;20051;-55
2022/05/03 00:44:02;;;;;;;10.05;7.90;;;6.00;99.90;;;;;;5010160;28;20060;-55
2022/05/03 00:46:35;;;;;;;11.20;7.97;;;5.90;99.90;;;;;;5044637;28;20088;-55
2022/05/03 00:49:14;;;;;;;8.88;7.97;;;5.90;99.90;;;;;;5041170;28;20076;-54
2022/05/03 00:52:08;;;;;;;9.60;7.88;;;5.90;99.90;;;;;;5039656;28;20126;-55
2022/05/03 00:54:45;;;;;;;9.52;7.10;;;5.90;99.90;;;;;;5043519;28;20766;-55
2022/05/03 00:57:36;;;;;;;10.00;8.20;;;5.90;99.90;;;;;;5044983;28;20049;-55
2022/05/03 01:00:09;;;;;;;9.23;8.00;;;5.90;99.90;;;;;;5051515;28;20109;-52
2022/05/03 01:02:49;;;;;;;9.48;7.72;;;5.90;99.90;;;;;;5043808;28;20394;-52
2022/05/03 01:05:25;;;;;;;9.40;6.90;;;5.90;99.90;;;;;;5044274;28;20154;-54
2022/05/03 01:08:07;;;;;;;8.65;6.70;;;5.90;99.90;;;;;;5010043;28;20057;-54
2022/05/03 01:10:43;;;;;;;11.57;8.25;;;5.80;99.90;;;;;;5041782;28;20358;-55
2022/05/03 01:13:23;;;;;;;9.35;7.50;;;5.70;99.90;;;;;;5040227;28;20099;-55
2022/05/03 01:16:02;;;;;;;8.90;7.13;;;5.70;99.90;;;;;;5045522;28;20102;-55
2022/05/03 01:19:00;;;;;;;11.30;7.47;;;5.70;99.90;;;;;;5011758;28;20064;-55
2022/05/03 01:21:51;;;;;;;11.55;8.15;;;5.70;99.90;;;;;;5043947;28;20102;-54
2022/05/03 01:24:50;;;;;;;12.10;8.50;;;5.60;99.90;;;;;;5037401;28;20071;-54
2022/05/03 01:27:40;;;;;;;9.85;8.18;;;5.50;99.90;;;;;;5041168;28;20152;-53
2022/05/03 01:30:11;;;;;;;12.40;8.95;;;5.50;99.90;;;;;;5022923;28;20037;-55
2022/05/03 01:32:42;;;;;;;10.45;8.20;;;5.50;99.90;;;;;;5044178;28;20073;-49
2022/05/03 01:35:11;;;;;;;10.00;8.18;;;5.60;99.90;;;;;;5044938;28;20072;-52
2022/05/03 01:37:49;;;;;;;10.95;9.13;;;5.50;99.90;;;;;;5025088;28;20493;-53
2022/05/03 01:40:19;;;;;;;11.32;9.73;;;5.50;99.90;;;;;;5036484;28;20053;-52
2022/05/03 01:42:56;;;;;;;9.93;8.50;;;5.60;99.90;;;;;;5005184;28;20127;-55
2022/05/03 01:45:41;;;;;;;10.00;8.60;;;5.60;99.90;;;;;;5041942;28;20120;-54
2022/05/03 01:48:14;;;;;;;10.77;9.10;;;5.60;99.90;;;;;;5040580;28;20057;-56
2022/05/03 01:51:10;;;;;;;12.45;8.80;;;5.50;99.90;;;;;;5036849;28;20052;-51
2022/05/03 01:53:53;;;;;;;10.07;8.40;;;5.50;99.90;;;;;;5020050;28;20069;-55
2022/05/03 01:56:19;;;;;;;13.02;9.02;;;5.50;99.90;;;;;;5039650;28;20044;-51
2022/05/03 01:58:58;;;;;;;9.02;7.57;;;5.40;99.90;;;;;;5042217;28;20045;-54
2022/05/03 02:01:37;;;;;;;11.57;8.85;;;5.30;99.90;;;;;;5042827;28;20549;-49
2022/05/03 02:04:09;;;;;;;11.02;8.23;;;5.30;99.90;;;;;;5042637;28;20094;-54
2022/05/03 02:07:03;;;;;;;13.82;9.48;;;5.30;99.90;;;;;;5043023;28;20053;-54
2022/05/03 02:09:46;;;;;;;10.90;9.35;;;5.30;99.90;;;;;;5027096;28;20073;-50
2022/05/03 02:12:17;;;;;;;10.38;9.02;;;5.30;99.90;;;;;;5041194;28;20052;-49
2022/05/03 02:14:53;;;;;;;10.60;9.07;;;5.20;99.90;;;;;;5041591;28;20053;-53
2022/05/03 02:17:32;;;;;;;11.07;9.30;;;5.10;99.90;;;;;;5032260;28;20049;-53
2022/05/03 02:20:29;;;;;;;13.55;10.63;;;5.00;99.90;;;;;;5040188;28;20076;-53
2022/05/03 02:23:22;;;;;;;13.00;9.75;;;4.90;99.90;;;;;;5023616;28;20747;-49
2022/05/03 02:26:12;;;;;;;9.90;8.63;;;4.90;99.90;;;;;;5037807;28;20138;-54
2022/05/03 02:28:42;;;;;;;11.18;8.60;;;4.90;99.90;;;;;;5035259;28;20048;-54
2022/05/03 02:31:14;;;;;;;11.52;9.43;;;4.80;99.90;;;;;;5043900;28;20886;-54
2022/05/03 02:33:55;;;;;;;12.63;9.75;;;4.90;99.90;;;;;;5037330;28;20053;-54
2022/05/03 02:36:24;;;;;;;14.40;10.85;;;4.90;99.90;;;;;;5022161;28;20053;-50
2022/05/03 02:39:02;;;;;;;12.95;10.93;;;4.90;99.90;;;;;;5042177;28;20072;-55
2022/05/03 02:41:32;;;;;;;12.55;10.05;;;4.90;99.90;;;;;;5042126;28;20107;-51
2022/05/03 02:44:01;;;;;;;13.80;10.68;;;4.90;99.90;;;;;;5039179;28;20037;-52
2022/05/03 02:47:09;;;;;;;13.98;10.95;;;4.90;99.90;;;;;;5042713;28;20057;-51
2022/05/03 02:49:53;;;;;;;14.38;10.90;;;5.00;99.90;;;;;;5040694;28;20055;-51
2022/05/03 02:52:42;;;;;;;14.07;11.00;;;5.00;99.90;;;;;;5042397;28;20431;-50
2022/05/03 02:55:41;;;;;;;12.30;10.30;;;5.00;99.90;;;;;;5007702;28;20095;-51
2022/05/03 02:58:28;;;;;;;14.15;9.75;;;5.00;99.90;;;;;;5038853;28;20389;-51
2022/05/03 03:03:59;;;;;;;11.70;9.55;;;4.80;99.90;;;;;;5036624;28;20037;-50
2022/05/03 03:06:36;;;;;;;14.02;10.90;;;4.70;99.90;;;;;;5038970;28;20094;-48
2022/05/03 03:09:03;;;;;;;12.30;10.98;;;4.60;99.90;;;;;;5036377;28;20052;-51
2022/05/03 03:11:40;;;;;;;14.70;12.18;;;4.60;99.90;;;;;;5035109;28;20053;-50
2022/05/03 03:14:11;;;;;;;13.77;11.50;;;4.50;99.90;;;;;;5036995;28;20045;-50
2022/05/03 03:16:52;;;;;;;14.32;12.73;;;4.50;99.90;;;;;;5037256;28;20048;-48
2022/05/03 03:19:55;;;;;;;16.40;12.05;;;4.50;99.90;;;;;;5038509;28;20079;-50
2022/05/03 03:22:23;;;;;;;14.82;12.20;;;4.50;99.90;;;;;;5031730;28;20057;-52
2022/05/03 03:24:54;;;;;;;13.65;11.60;;;4.50;99.90;;;;;;5039543;28;20072;-50
2022/05/03 03:27:23;;;;;;;13.40;11.95;;;4.60;99.90;;;;;;5040083;28;20048;-51
2022/05/03 03:29:52;;;;;;;14.70;11.55;;;4.50;99.90;;;;;;5036942;28;20053;-50
2022/05/03 03:32:22;;;;;;;13.02;11.63;;;4.50;99.90;;;;;;5038541;28;20596;-51
2022/05/03 03:34:49;;;;;;;12.95;11.30;;;4.50;99.90;;;;;;5037146;28;20063;-51
2022/05/03 03:37:18;;;;;;;14.85;12.18;;;4.50;99.90;;;;;;5017483;28;20492;-51
2022/05/03 03:39:44;;;;;;;14.40;11.65;;;4.50;99.90;;;;;;5023826;28;20470;-52
2022/05/03 03:42:11;;;;;;;13.23;11.45;;;4.50;99.90;;;;;;5034134;28;20049;-48
2022/05/03 03:44:37;;;;;;;14.27;12.05;;;4.50;99.90;;;;;;5039023;28;20663;-52
2022/05/03 03:47:03;;;;;;;13.43;11.00;;;4.50;99.90;;;;;;5038395;28;20110;-49
2022/05/03 03:49:30;;;;;;;13.02;11.63;;;4.50;99.90;;;;;;5040143;28;20088;-49
2022/05/03 03:52:09;;;;;;;13.85;11.13;;;4.40;99.90;;;;;;5039193;28;20052;-52
2022/05/03 03:54:36;;;;;;;15.23;11.63;;;4.40;99.90;;;;;;5038369;28;20534;-50
2022/05/03 03:57:04;;;;;;;12.60;10.52;;;4.40;99.90;;;;;;5037292;28;20123;-48
2022/05/03 03:59:32;;;;;;;13.55;11.05;;;4.40;99.90;;;;;;5021356;28;20052;-49
2022/05/03 04:01:59;;;;;;;12.55;10.43;;;4.40;99.90;;;;;;5038037;28;20044;-52
2022/05/03 04:04:35;;;;;;;12.85;10.52;;;4.40;99.90;;;;;;5037615;28;20084;-53
2022/05/03 04:07:01;;;;;;;10.43;9.25;;;4.50;99.90;;;;;;5036922;28;20052;-52
2022/05/03 04:09:29;;;;;;;11.75;10.50;;;4.50;99.90;;;;;;5042548;28;20044;-47
2022/05/03 04:11:55;;;;;;;15.43;11.45;;;4.50;99.90;;;;;;5043376;28;20873;-48
2022/05/03 04:14:21;;;;;;;12.43;11.05;;;4.50;99.90;;;;;;5044256;28;20052;-50
2022/05/03 04:16:48;;;;;;;12.15;10.88;;;4.50;99.90;;;;;;5047500;28;20140;-48
2022/05/03 04:19:14;;;;;;;15.85;12.25;;;4.60;99.90;;;;;;5039825;28;20132;-49
2022/05/03 04:21:40;;;;;;;16.38;12.10;;;4.60;99.90;;;;;;5044993;28;20045;-50
2022/05/03 04:24:07;;;;;;;15.13;12.85;;;4.70;99.90;;;;;;5041483;28;20073;-53
2022/05/03 04:26:34;;;;;;;13.75;11.32;;;4.70;99.90;;;;;;5041767;28;20056;-50
2022/05/03 04:29:02;;;;;;;13.30;11.93;;;4.70;99.90;;;;;;5044807;28;20451;-47
2022/05/03 04:31:33;;;;;;;13.82;11.20;;;4.80;99.90;;;;;;5042512;28;20055;-50
2022/05/03 04:34:01;;;;;;;12.95;11.25;;;4.70;99.90;;;;;;5042684;28;20083;-47
2022/05/03 04:36:27;;;;;;;16.73;12.52;;;4.70;99.90;;;;;;5042602;28;20045;-51
2022/05/03 04:38:53;;;;;;;15.95;12.77;;;4.80;99.90;;;;;;5042073;28;20049;-48
2022/05/03 04:41:21;;;;;;;15.27;12.27;;;4.90;99.90;;;;;;5022834;28;20049;-50
2022/05/03 04:43:47;;;;;;;12.23;11.02;;;4.90;99.90;;;;;;5043181;28;20048;-50
2022/05/03 04:46:14;;;;;;;14.50;12.40;;;5.00;99.90;;;;;;5042219;28;20060;-50
2022/05/03 04:48:41;;;;;;;13.20;11.90;;;5.00;99.90;;;;;;5041298;28;20040;-51
2022/05/03 04:51:17;;;;;;;15.10;13.63;;;5.20;99.90;;;;;;5041576;28;20463;-51
2022/05/03 04:53:44;;;;;;;14.90;13.30;;;5.20;99.90;;;;;;5043396;28;20057;-50
2022/05/03 04:56:18;;;;;;;14.80;13.20;;;5.30;99.90;;;;;;5040208;28;21098;-50
2022/05/03 04:58:45;;;;;;;17.23;12.32;;;5.40;99.90;;;;;;5040610;28;20051;-49
2022/05/03 05:01:12;;;;;;;15.50;13.68;;;5.50;99.90;;;;;;5041551;28;20401;-47
2022/05/03 05:03:39;;;;;;;15.93;13.90;;;5.60;99.90;;;;;;5058312;28;20717;-52
2022/05/03 05:06:05;;;;;;;15.23;13.35;;;5.70;99.90;;;;;;5041123;28;20056;-49
2022/05/03 05:08:31;;;;;;;14.73;13.15;;;5.80;99.90;;;;;;5040080;28;20044;-53
2022/05/03 05:10:57;;;;;;;14.95;12.85;;;5.80;99.90;;;;;;5044841;28;20480;-52
2022/05/03 05:13:25;;;;;;;14.07;12.57;;;6.00;99.90;;;;;;5042719;28;20064;-52
2022/05/03 05:15:51;;;;;;;14.00;12.60;;;6.30;99.90;;;;;;5038838;28;20132;-52
2022/05/03 05:18:17;;;;;;;14.30;12.30;;;6.40;99.90;;;;;;5044836;28;20128;-52
2022/05/03 05:20:43;;;;;;;15.63;12.82;;;6.60;99.90;;;;;;5043980;28;20087;-53
2022/05/03 05:23:09;;;;;;;13.68;12.23;;;6.80;99.90;;;;;;5041090;28;20130;-51
2022/05/03 05:25:35;;;;;;;13.98;12.65;;;6.90;99.90;;;;;;5043341;28;20060;-51
2022/05/03 05:28:02;;;;;;;15.73;12.02;;;6.90;99.90;;;;;;5042695;28;20142;-49
2022/05/03 05:30:28;;;;;;;14.90;13.27;;;7.10;99.90;;;;;;5037873;28;20041;-49
2022/05/03 05:32:54;;;;;;;14.65;13.15;;;7.20;99.90;;;;;;5023906;28;20138;-52
2022/05/03 05:35:20;;;;;;;15.35;12.93;;;7.40;99.90;;;;;;5039224;28;20053;-49
2022/05/03 05:37:46;;;;;;;14.98;13.57;;;7.60;99.90;;;;;;5037174;28;20107;-53
2022/05/03 05:40:12;;;;;;;15.73;14.18;;;7.50;99.90;;;;;;5040926;28;20450;-51
2022/05/03 05:42:38;;;;;;;16.65;14.43;;;7.60;99.90;;;;;;5040068;28;20056;-49
2022/05/03 05:45:05;;;;;;;17.55;15.88;;;7.70;99.90;;;;;;5026144;28;20049;-49
2022/05/03 05:47:31;;;;;;;16.75;15.13;;;7.70;99.90;;;;;;5043690;28;20063;-49
2022/05/03 05:49:58;;;;;;;17.85;15.93;;;7.80;99.90;;;;;;5042070;28;20057;-52
2022/05/03 05:55:09;;;;;;;17.77;16.08;;;7.90;99.90;;;;;;5041574;28;20049;-50
2022/05/03 05:57:35;;;;;;;18.73;16.67;;;8.10;99.90;;;;;;5044438;28;20052;-49
2022/05/03 06:00:03;;;;;;;19.02;16.75;;;8.30;99.90;;;;;;5036515;28;20048;-53
2022/05/03 06:02:39;;;;;;;17.90;16.02;;;8.30;99.90;;;;;;5034274;28;20048;-52
2022/05/03 06:05:06;;;;;;;21.63;19.48;;;8.40;99.90;;;;;;5047527;28;20837;-52
2022/05/03 06:07:33;;;;;;;22.60;20.17;;;8.50;99.90;;;;;;5043598;28;20084;-52
2022/05/03 06:09:59;;;;;;;23.90;21.35;;;8.50;99.90;;;;;;5028281;28;20049;-54
2022/05/03 06:12:25;;;;;;;22.75;20.40;;;8.60;99.90;;;;;;5042224;28;20067;-54
2022/05/03 06:14:52;;;;;;;24.08;20.17;;;8.80;99.90;;;;;;5032289;28;20095;-51
2022/05/03 06:17:18;;;;;;;23.13;20.25;;;8.80;99.90;;;;;;5037416;28;20495;-51
2022/05/03 06:19:45;;;;;;;23.30;20.80;;;9.00;99.90;;;;;;5033490;28;20116;-48
2022/05/03 06:22:11;;;;;;;24.02;21.55;;;9.00;99.90;;;;;;5006631;28;20103;-50
2022/05/03 06:24:38;;;;;;;23.33;20.77;;;9.10;99.90;;;;;;5010013;28;20057;-52
2022/05/03 06:27:04;;;;;;;24.85;22.23;;;9.20;99.90;;;;;;5028898;28;20124;-52
2022/05/03 06:29:33;;;;;;;26.90;21.38;;;9.30;99.90;;;;;;5043681;28;20084;-49
2022/05/03 06:32:00;;;;;;;25.65;22.65;;;9.40;99.90;;;;;;5042795;28;20138;-52
2022/05/03 06:34:27;;;;;;;24.75;22.10;;;9.60;99.90;;;;;;5034851;28;20052;-50
2022/05/03 06:36:53;;;;;;;26.27;22.33;;;9.70;99.90;;;;;;5024195;28;20048;-55
2022/05/03 06:39:19;;;;;;;27.08;24.02;;;9.80;99.90;;;;;;5028863;28;20048;-50
2022/05/03 06:41:45;;;;;;;27.20;24.13;;;10.00;99.90;;;;;;5033802;28;20049;-46
2022/05/03 06:44:13;;;;;;;26.48;23.60;;;10.10;99.90;;;;;;5030394;28;20044;-48
2022/05/03 06:46:39;;;;;;;28.65;25.65;;;10.10;99.90;;;;;;5034002;28;20520;-51
2022/05/03 06:49:05;;;;;;;27.92;24.92;;;10.20;99.90;;;;;;5015418;28;20060;-50
2022/05/03 06:51:31;;;;;;;29.35;26.13;;;10.20;99.90;;;;;;5039944;28;20067;-51
2022/05/03 06:53:58;;;;;;;30.60;27.35;;;10.20;99.90;;;;;;5029414;28;20057;-51
2022/05/03 06:56:24;;;;;;;33.03;27.77;;;10.20;99.90;;;;;;5033177;28;20053;-53
2022/05/03 06:58:50;;;;;;;31.05;26.70;;;10.30;99.90;;;;;;5031385;28;20768;-51
2022/05/03 07:01:16;;;;;;;31.70;28.23;;;10.40;99.90;;;;;;5002084;28;20659;-55
2022/05/03 07:03:43;;;;;;;32.92;28.98;;;10.40;99.90;;;;;;4999879;28;20558;-51
2022/05/03 07:06:09;;;;;;;30.13;26.88;;;10.30;99.90;;;;;;5012238;28;20478;-47
2022/05/03 07:08:36;;;;;;;35.15;29.67;;;10.40;99.90;;;;;;5025166;28;20060;-51
2022/05/03 07:11:03;;;;;;;48.15;36.72;;;10.50;99.90;;;;;;5035815;28;20060;-51
2022/05/03 07:13:29;;;;;;;49.47;36.92;;;10.50;99.90;;;;;;5019891;28;20056;-50
2022/05/03 07:15:57;;;;;;;48.78;38.03;;;10.50;99.90;;;;;;5004888;28;20061;-49
2022/05/03 07:23:54;;;;;;;48.40;36.63;;;10.40;99.90;;;;;;5031076;28;20048;-48
2022/05/03 07:26:21;;;;;;;48.40;34.17;;;10.40;99.90;;;;;;5002421;28;20045;-48
2022/05/03 07:28:48;;;;;;;50.67;38.13;;;10.50;99.90;;;;;;5025253;28;20049;-51
2022/05/03 07:31:16;;;;;;;54.63;38.28;;;10.50;99.90;;;;;;5015405;28;20397;-49
2022/05/03 07:33:42;;;;;;;54.13;38.05;;;10.50;99.90;;;;;;5032541;28;20073;-51
2022/05/03 07:36:08;;;;;;;69.85;40.90;;;10.60;99.90;;;;;;5029413;28;20096;-53
2022/05/03 07:38:34;;;;;;;66.20;41.72;;;10.60;99.90;;;;;;5025749;28;20053;-48
2022/05/03 07:41:00;;;;;;;81.88;44.63;;;10.50;99.90;;;;;;5022450;28;20449;-48
2022/05/03 07:43:27;;;;;;;85.75;45.13;;;10.40;99.90;;;;;;5024219;28;20063;-49
2022/05/03 07:45:54;;;;;;;80.03;45.17;;;10.40;99.90;;;;;;5030250;28;20095;-45
2022/05/03 07:48:21;;;;;;;81.43;43.30;;;10.40;99.90;;;;;;5037667;28;20048;-46
2022/05/03 07:50:47;;;;;;;67.80;41.03;;;10.30;99.90;;;;;;5028877;28;20052;-54
2022/05/03 07:53:13;;;;;;;74.60;41.92;;;10.30;99.90;;;;;;5022161;28;20110;-51
2022/05/03 07:55:40;;;;;;;75.50;45.38;;;10.30;99.90;;;;;;5036384;28;20159;-49
2022/05/03 07:58:06;;;;;;;70.40;42.65;;;10.30;99.90;;;;;;5034796;28;20404;-53
2022/05/03 08:00:32;;;;;;;69.47;42.38;;;10.30;99.90;;;;;;5032038;28;20033;-55
2022/05/03 08:02:58;;;;;;;64.72;42.13;;;10.40;99.90;;;;;;5035480;28;20041;-48
2022/05/03 08:05:24;;;;;;;60.75;39.60;;;10.40;99.90;;;;;;5036420;28;20484;-50
2022/05/03 08:07:51;;;;;;;62.22;39.03;;;10.30;99.90;;;;;;5022090;28;20052;-50
2022/05/03 08:10:17;;;;;;;58.47;40.25;;;10.40;99.90;;;;;;5036364;28;20057;-48
2022/05/03 08:12:50;;;;;;;50.28;34.75;;;10.40;99.90;;;;;;5026340;28;20053;-50
2022/05/03 08:15:21;;;;;;;51.03;34.42;;;10.40;99.90;;;;;;5033224;28;20756;-49
2022/05/03 08:17:47;;;;;;;48.78;34.65;;;10.40;99.90;;;;;;5030602;28;20045;-48
2022/05/03 08:20:14;;;;;;;48.20;34.38;;;10.50;99.90;;;;;;5028708;28;20050;-50
2022/05/03 08:22:42;;;;;;;48.80;34.13;;;10.40;99.90;;;;;;5026735;28;20053;-48
2022/05/03 08:25:08;;;;;;;50.03;32.28;;;10.50;99.90;;;;;;5027261;28;20054;-48
2022/05/03 08:27:40;;;;;;;42.47;30.92;;;10.50;99.90;;;;;;5026688;28;20049;-50
2022/05/03 08:30:08;;;;;;;48.08;33.80;;;10.60;99.90;;;;;;5031176;28;20393;-52
2022/05/03 08:32:35;;;;;;;45.75;30.45;;;10.60;99.90;;;;;;5029189;28;20046;-47
2022/05/03 08:35:01;;;;;;;41.42;26.98;;;10.60;99.90;;;;;;5031226;28;20501;-51
2022/05/03 08:42:57;;;;;;;38.33;24.33;;;10.80;99.90;;;;;;5028577;28;20508;-46
2022/05/03 08:45:26;;;;;;;28.85;21.30;;;10.90;99.90;;;;;;5032109;28;20523;-47
2022/05/03 08:47:55;;;;;;;25.40;17.65;;;10.90;99.90;;;;;;5026849;28;20041;-49
2022/05/03 08:50:22;;;;;;;31.67;22.02;;;11.00;99.90;;;;;;5016145;28;20048;-52
2022/05/03 08:52:59;;;;;;;20.80;14.90;;;11.20;99.90;;;;;;5031899;28;20045;-55
2022/05/03 08:55:27;;;;;;;20.73;13.15;;;11.30;99.90;;;;;;5039178;28;20080;-54
2022/05/03 08:57:53;;;;;;;21.40;13.07;;;11.40;99.90;;;;;;5027746;28;20069;-48
2022/05/03 09:00:20;;;;;;;22.08;15.50;;;11.50;99.90;;;;;;5029942;28;20286;-48
2022/05/03 09:02:57;;;;;;;16.30;11.10;;;11.40;99.90;;;;;;5029241;28;20432;-47
2022/05/03 09:05:24;;;;;;;16.25;9.88;;;11.40;99.90;;;;;;5022685;28;20046;-47
2022/05/03 09:07:56;;;;;;;18.85;10.30;;;11.40;99.90;;;;;;5042594;28;20044;-47
2022/05/03 09:10:24;;;;;;;24.63;14.65;;;11.40;99.90;;;;;;5028322;28;20045;-51
2022/05/03 09:12:54;;;;;;;13.02;8.48;;;11.40;99.90;;;;;;5035090;28;20049;-57
2022/05/03 09:15:33;;;;;;;15.55;10.25;;;11.50;99.90;;;;;;5037746;28;20049;-54
2022/05/03 09:18:00;;;;;;;15.75;12.38;;;11.50;99.90;;;;;;5016212;28;20042;-52
2022/05/03 09:26:21;;;;;;;21.33;14.38;;;11.80;99.90;;;;;;5027995;28;20065;-54
2022/05/03 09:28:56;;;;;;;16.88;11.98;;;11.80;99.90;;;;;;5034930;28;20059;-53
2022/05/03 09:31:47;;;;;;;16.63;9.15;;;11.80;99.90;;;;;;5023416;28;20059;-54
2022/05/03 09:34:27;;;;;;;18.85;10.95;;;11.80;99.90;;;;;;5028231;28;20530;-52
2022/05/03 09:37:02;;;;;;;21.70;9.05;;;11.70;99.90;;;;;;5037065;28;20831;-53
2022/05/03 09:39:32;;;;;;;16.27;7.93;;;11.80;99.90;;;;;;5032444;28;20037;-55
2022/05/03 09:42:15;;;;;;;22.50;10.68;;;11.80;99.90;;;;;;5035008;28;20092;-52
2022/05/03 09:44:50;;;;;;;18.42;9.90;;;11.70;99.90;;;;;;5034151;28;20491;-55
2022/05/03 09:47:17;;;;;;;23.95;12.45;;;11.50;99.90;;;;;;5030080;28;20056;-55
2022/05/03 09:49:44;;;;;;;23.30;10.35;;;11.40;99.90;;;;;;5019083;28;20045;-53
2022/05/03 09:52:31;;;;;;;27.02;12.70;;;11.30;99.90;;;;;;5034674;28;20084;-52
2022/05/03 09:55:07;;;;;;;19.27;10.75;;;11.20;99.90;;;;;;5020318;28;20583;-53
2022/05/03 09:57:38;;;;;;;20.63;9.23;;;11.20;99.90;;;;;;5027694;28;20508;-52
2022/05/03 10:00:07;;;;;;;18.63;9.93;;;11.20;99.90;;;;;;5034464;28;20056;-54
2022/05/03 10:02:42;;;;;;;31.27;17.65;;;11.40;99.90;;;;;;5003121;28;20784;-53
2022/05/03 10:05:11;;;;;;;28.75;15.43;;;11.60;99.90;;;;;;5030061;28;20400;-53
2022/05/03 10:07:40;;;;;;;22.17;11.50;;;11.70;99.90;;;;;;5034482;28;20587;-51
2022/05/03 10:10:08;;;;;;;19.85;11.65;;;11.70;99.90;;;;;;5031628;28;20049;-49
2022/05/03 10:12:37;;;;;;;26.80;14.90;;;11.70;99.90;;;;;;5035346;28;20083;-48
2022/05/03 10:15:04;;;;;;;27.38;14.35;;;11.80;99.90;;;;;;5033622;28;20079;-50
2022/05/03 10:20:40;;;;;;;29.92;12.85;;;11.90;99.90;;;;;;5019960;28;20044;-50
2022/05/03 10:23:21;;;;;;;21.55;10.18;;;12.00;99.90;;;;;;5041912;28;20053;-47
2022/05/03 10:25:47;;;;;;;17.75;8.77;;;12.20;99.90;;;;;;5014225;28;20088;-49
2022/05/03 10:28:14;;;;;;;20.08;8.77;;;12.30;99.90;;;;;;5031844;28;20540;-49
2022/05/03 10:31:05;;;;;;;24.30;8.95;;;12.30;99.90;;;;;;5039966;28;20064;-47
2022/05/03 10:33:32;;;;;;;17.98;8.93;;;12.30;99.90;;;;;;5039664;28;20499;-47
2022/05/03 10:36:00;;;;;;;28.33;9.43;;;12.40;99.90;;;;;;5031695;28;20467;-50
2022/05/03 10:38:40;;;;;;;22.30;7.10;;;12.40;99.90;;;;;;5014646;28;20047;-51
2022/05/03 10:41:10;;;;;;;29.27;12.18;;;12.50;99.90;;;;;;5025796;28;20706;-47
2022/05/03 10:43:38;;;;;;;24.50;11.93;;;12.60;99.90;;;;;;5057109;28;20674;-49
2022/05/03 10:46:12;;;;;;;17.48;6.85;;;12.50;99.90;;;;;;5037047;28;20053;-49
2022/05/03 10:48:42;;;;;;;24.88;8.30;;;12.60;99.90;;;;;;5033276;28;20053;-51
2022/05/03 10:51:11;;;;;;;20.30;7.47;;;12.70;99.90;;;;;;5032935;28;20053;-49
2022/05/03 10:53:40;;;;;;;19.95;8.18;;;12.80;99.90;;;;;;5028613;28;20057;-49
2022/05/03 10:56:16;;;;;;;17.40;9.20;;;12.70;99.90;;;;;;5033727;28;20396;-50
2022/05/03 10:58:45;;;;;;;19.05;8.25;;;12.70;99.90;;;;;;5034781;28;20060;-49
2022/05/03 11:01:23;;;;;;;14.35;8.57;;;12.80;99.90;;;;;;5031204;28;20048;-50
2022/05/03 11:03:58;;;;;;;17.85;5.97;;;12.90;99.90;;;;;;5024118;28;20158;-48
2022/05/03 11:06:27;;;;;;;17.30;7.63;;;12.90;99.90;;;;;;5033789;28;20053;-48
2022/05/03 11:09:08;;;;;;;17.95;6.20;;;13.00;99.90;;;;;;5029174;28;20500;-46
2022/05/03 11:11:43;;;;;;;12.18;5.55;;;13.10;99.90;;;;;;5030226;28;20085;-47
2022/05/03 11:14:24;;;;;;;13.63;4.82;;;13.10;99.90;;;;;;5030846;28;20045;-47
2022/05/03 11:17:11;;;;;;;10.25;4.93;;;13.10;99.90;;;;;;5032349;28;20049;-49
2022/05/03 11:19:43;;;;;;;15.52;5.65;;;13.10;99.90;;;;;;5021663;28;20187;-47
2022/05/03 11:22:11;;;;;;;14.57;6.88;;;13.20;99.90;;;;;;5041613;28;20170;-46
2022/05/03 11:24:51;;;;;;;10.50;4.43;;;13.20;99.90;;;;;;5030907;28;20057;-47
2022/05/03 11:27:19;;;;;;;18.88;8.07;;;13.30;99.90;;;;;;5030901;28;20072;-49
2022/05/03 11:29:54;;;;;;;13.85;7.40;;;13.30;99.90;;;;;;5033505;28;20053;-48
2022/05/03 11:32:41;;;;;;;13.55;5.05;;;13.40;99.90;;;;;;4995693;28;20084;-46
2022/05/03 11:35:20;;;;;;;11.57;4.68;;;13.30;99.90;;;;;;5033249;28;20041;-55
2022/05/03 11:37:52;;;;;;;13.45;4.75;;;13.40;99.90;;;;;;5032137;28;20048;-47
2022/05/03 11:40:21;;;;;;;10.80;4.60;;;13.50;99.90;;;;;;5038589;28;20041;-48
2022/05/03 11:42:49;;;;;;;15.52;4.45;;;13.60;99.90;;;;;;5030412;28;20049;-55
2022/05/03 11:45:16;;;;;;;13.43;5.43;;;13.80;99.90;;;;;;5036327;28;20160;-46
2022/05/03 11:47:45;;;;;;;12.02;4.38;;;14.00;99.90;;;;;;5034517;28;20041;-47
2022/05/03 11:55:58;;;;;;;12.25;4.70;;;14.20;99.90;;;;;;5035417;28;20942;-48
2022/05/03 11:56:01;;;;;;;13.60;6.13;;;14.50;99.90;;;;;;5049211;28;20686;-55
2022/05/03 11:58:30;;;;;;;12.32;4.22;;;14.60;99.90;;;;;;5022582;28;20190;-46
2022/05/03 12:00:56;;;;;;;15.90;6.50;;;14.70;99.90;;;;;;5031117;28;20049;-48
2022/05/03 12:03:23;;;;;;;12.07;4.07;;;14.90;99.90;;;;;;4994197;28;20132;-48
2022/05/03 12:06:04;;;;;;;13.13;4.93;;;14.60;99.90;;;;;;5028718;28;20057;-46
2022/05/03 12:08:31;;;;;;;9.32;4.00;;;14.80;99.90;;;;;;5027303;28;20042;-55
2022/05/03 12:10:58;;;;;;;12.70;4.38;;;14.70;99.90;;;;;;5036640;28;20104;-58
2022/05/03 12:13:24;;;;;;;12.82;4.13;;;15.00;99.90;;;;;;5031707;28;20850;-56
2022/05/03 12:16:07;;;;;;;10.25;4.32;;;15.00;99.90;;;;;;5032193;28;20076;-55
2022/05/03 12:18:46;;;;;;;15.10;8.30;;;14.90;99.90;;;;;;5055095;28;20572;-47
2022/05/03 12:21:16;;;;;;;12.90;4.55;;;14.80;99.90;;;;;;5016061;28;20526;-56
2022/05/03 12:23:45;;;;;;;17.45;6.20;;;14.80;99.90;;;;;;5037061;28;20068;-49
2022/05/03 12:26:21;;;;;;;12.50;5.65;;;14.90;99.90;;;;;;5026646;28;20049;-49
2022/05/03 12:28:53;;;;;;;13.50;4.75;;;15.00;99.90;;;;;;5035391;28;20050;-51
2022/05/03 12:31:20;;;;;;;8.85;4.22;;;15.00;99.90;;;;;;5035297;28;20762;-48
2022/05/03 12:33:49;;;;;;;8.80;4.15;;;15.20;99.90;;;;;;5036251;28;20061;-46
2022/05/03 12:36:36;;;;;;;12.27;4.30;;;15.00;99.90;;;;;;5035037;28;20049;-51
2022/05/03 12:39:09;;;;;;;7.32;3.42;;;15.20;99.90;;;;;;5053241;28;20087;-49
2022/05/03 12:41:36;;;;;;;13.00;3.75;;;15.10;99.90;;;;;;5037264;28;20463;-50
2022/05/03 12:44:03;;;;;;;7.90;3.55;;;15.20;99.90;;;;;;5034991;28;20077;-48
2022/05/03 12:46:30;;;;;;;8.70;4.03;;;15.50;99.90;;;;;;5005336;28;20442;-49
2022/05/03 12:48:57;;;;;;;13.43;5.15;;;15.60;99.90;;;;;;5033403;28;20056;-45
2022/05/03 12:51:26;;;;;;;12.40;3.40;;;15.90;99.90;;;;;;5036794;28;20496;-50
2022/05/03 12:53:52;;;;;;;10.35;3.35;;;16.00;99.90;;;;;;5034148;28;20158;-48
2022/05/03 12:59:04;;;;;;;8.88;3.33;;;16.00;99.90;;;;;;5031648;28;20401;-45
2022/05/03 13:01:31;;;;;;;8.90;2.90;;;15.80;99.90;;;;;;5015881;28;20045;-48
2022/05/03 13:03:57;;;;;;;8.55;2.55;;;15.90;99.90;;;;;;5036803;28;20152;-56
2022/05/03 13:06:24;;;;;;;10.98;4.35;;;16.00;99.90;;;;;;5034619;28;20089;-56
2022/05/03 13:08:50;;;;;;;9.70;4.00;;;16.10;99.90;;;;;;5016686;28;20107;-56
2022/05/03 13:11:17;;;;;;;9.05;4.05;;;16.30;99.90;;;;;;5036095;28;20385;-57
2022/05/03 13:13:43;;;;;;;8.30;4.82;;;16.30;99.90;;;;;;5017573;28;20046;-56
2022/05/03 13:16:10;;;;;;;9.55;2.85;;;16.30;99.90;;;;;;5037915;28;20084;-56
2022/05/03 13:18:36;;;;;;;8.07;2.38;;;16.40;99.90;;;;;;5035600;28;20066;-56
2022/05/03 13:21:02;;;;;;;16.05;9.43;;;16.30;99.90;;;;;;5033932;28;20081;-56
2022/05/03 13:23:29;;;;;;;6.75;2.58;;;17.30;99.90;;;;;;5037106;28;20595;-56
2022/05/03 13:25:55;;;;;;;11.38;5.15;;;17.70;99.90;;;;;;5037665;28;20073;-56
2022/05/03 13:28:21;;;;;;;7.47;2.47;;;17.30;99.90;;;;;;5017113;28;20041;-56
2022/05/03 13:30:47;;;;;;;9.35;2.75;;;17.40;99.90;;;;;;5036895;28;20080;-56